sensor_id;sensor_type;location;lat;lon;timestamp;pressure;altitude;pressure_sealevel;temperature;humidity
59043;BME280;44826;51.596;5.624;2023-03-26T00:01:03;100632.56;;;7.39;92.35
59043;BME280;44826;51.596;5.624;2023-03-26T00:03:32;100634.31;;;7.37;92.22
59043;BME280;44826;51.596;5.624;2023-03-26T00:06:10;100634.38;;;7.33;92.58
59043;BME280;44826;51.596;5.624;2023-03-26T00:08:38;100630.97;;;7.31;92.08
59043;BME280;44826;51.596;5.624;2023-03-26T00:11:06;100631.88;;;7.28;92.38
59043;BME280;44826;51.596;5.624;2023-03-26T00:13:32;100631.91;;;7.25;92.36
59043;BME280;44826;51.596;5.624;2023-03-26T00:15:59;100629.38;;;7.22;92.34
59043;BME280;44826;51.596;5.624;2023-03-26T00:18:24;100635.47;;;7.18;92.03
59043;BME280;44826;51.596;5.624;2023-03-26T00:20:58;100632.06;;;7.16;92.08
59043;BME280;44826;51.596;5.624;2023-03-26T00:23:25;100639.00;;;7.13;92.14
59043;BME280;44826;51.596;5.624;2023-03-26T00:25:52;100631.28;;;7.10;92.25
59043;BME280;44826;51.596;5.624;2023-03-26T00:28:18;100635.63;;;7.08;92.45
59043;BME280;44826;51.596;5.624;2023-03-26T00:31:09;100633.91;;;7.07;92.24
59043;BME280;44826;51.596;5.624;2023-03-26T00:33:33;100621.00;;;7.04;92.17
59043;BME280;44826;51.596;5.624;2023-03-26T00:36:03;100625.34;;;7.02;92.07
59043;BME280;44826;51.596;5.624;2023-03-26T00:38:30;100615.91;;;6.99;92.09
59043;BME280;44826;51.596;5.624;2023-03-26T00:40:59;100609.94;;;6.96;91.82
59043;BME280;44826;51.596;5.624;2023-03-26T00:43:31;100604.81;;;6.93;92.07
59043;BME280;44826;51.596;5.624;2023-03-26T00:45:57;100600.53;;;6.90;92.05
59043;BME280;44826;51.596;5.624;2023-03-26T00:48:23;100597.97;;;6.89;91.79
59043;BME280;44826;51.596;5.624;2023-03-26T00:50:50;100599.72;;;6.87;92.11
59043;BME280;44826;51.596;5.624;2023-03-26T00:53:16;100592.88;;;6.84;91.92
59043;BME280;44826;51.596;5.624;2023-03-26T00:55:44;100601.53;;;6.81;91.80
59043;BME280;44826;51.596;5.624;2023-03-26T00:58:12;100600.69;;;6.79;91.86
59043;BME280;44826;51.596;5.624;2023-03-26T01:00:46;100602.44;;;6.77;91.88
59043;BME280;44826;51.596;5.624;2023-03-26T01:03:14;100603.31;;;6.76;91.51
59043;BME280;44826;51.596;5.624;2023-03-26T01:05:49;100594.72;;;6.74;92.21
59043;BME280;44826;51.596;5.624;2023-03-26T01:08:29;100587.84;;;6.73;91.89
59043;BME280;44826;51.596;5.624;2023-03-26T01:10:57;100587.00;;;6.73;91.80
59043;BME280;44826;51.596;5.624;2023-03-26T01:13:34;100583.53;;;6.72;91.94
59043;BME280;44826;51.596;5.624;2023-03-26T01:16:02;100577.50;;;6.73;92.04
59043;BME280;44826;51.596;5.624;2023-03-26T01:18:31;100568.88;;;6.74;92.08
59043;BME280;44826;51.596;5.624;2023-03-26T01:21:00;100566.25;;;6.77;92.01
59043;BME280;44826;51.596;5.624;2023-03-26T01:23:59;100561.88;;;6.81;91.78
59043;BME280;44826;51.596;5.624;2023-03-26T01:29:32;100555.00;;;6.81;91.87
59043;BME280;44826;51.596;5.624;2023-03-26T01:32:23;100544.66;;;6.81;92.06
59043;BME280;44826;51.596;5.624;2023-03-26T01:40:26;100537.78;;;6.79;92.10
59043;BME280;44826;51.596;5.624;2023-03-26T01:45:29;100522.28;;;6.76;91.81
59043;BME280;44826;51.596;5.624;2023-03-26T01:47:56;100513.75;;;6.72;91.90
59043;BME280;44826;51.596;5.624;2023-03-26T01:50:21;100517.25;;;6.68;91.68
59043;BME280;44826;51.596;5.624;2023-03-26T01:52:47;100517.31;;;6.65;91.62
59043;BME280;44826;51.596;5.624;2023-03-26T01:55:12;100511.31;;;6.61;91.66
59043;BME280;44826;51.596;5.624;2023-03-26T02:00:27;100514.00;;;6.53;91.43
59043;BME280;44826;51.596;5.624;2023-03-26T02:06:04;100508.13;;;6.44;91.34
59043;BME280;44826;51.596;5.624;2023-03-26T02:08:38;100501.31;;;6.40;91.56
59043;BME280;44826;51.596;5.624;2023-03-26T02:11:09;100497.00;;;6.37;91.55
59043;BME280;44826;51.596;5.624;2023-03-26T02:13:36;100494.47;;;6.35;91.72
59043;BME280;44826;51.596;5.624;2023-03-26T02:16:04;100487.63;;;6.31;91.57
59043;BME280;44826;51.596;5.624;2023-03-26T02:18:30;100485.06;;;6.30;91.67
59043;BME280;44826;51.596;5.624;2023-03-26T02:21:02;100484.25;;;6.28;91.77
59043;BME280;44826;51.596;5.624;2023-03-26T02:23:27;100476.53;;;6.25;91.85
59043;BME280;44826;51.596;5.624;2023-03-26T02:25:53;100475.66;;;6.24;92.03
59043;BME280;44826;51.596;5.624;2023-03-26T02:28:19;100469.63;;;6.25;92.17
59043;BME280;44826;51.596;5.624;2023-03-26T02:30:44;100469.66;;;6.23;92.20
59043;BME280;44826;51.596;5.624;2023-03-26T02:33:09;100462.81;;;6.21;91.89
59043;BME280;44826;51.596;5.624;2023-03-26T02:35:40;100461.09;;;6.20;92.00
59043;BME280;44826;51.596;5.624;2023-03-26T02:38:10;100452.50;;;6.16;92.57
59043;BME280;44826;51.596;5.624;2023-03-26T02:40:38;100456.88;;;6.14;92.50
59043;BME280;44826;51.596;5.624;2023-03-26T02:43:04;100451.72;;;6.14;92.45
59043;BME280;44826;51.596;5.624;2023-03-26T02:45:29;100462.84;;;6.16;92.60
59043;BME280;44826;51.596;5.624;2023-03-26T02:47:54;100455.97;;;6.15;92.45
59043;BME280;44826;51.596;5.624;2023-03-26T02:50:20;100449.13;;;6.14;92.38
59043;BME280;44826;51.596;5.624;2023-03-26T02:52:45;100446.53;;;6.13;92.30
59043;BME280;44826;51.596;5.624;2023-03-26T02:55:14;100442.25;;;6.13;92.51
59043;BME280;44826;51.596;5.624;2023-03-26T02:57:39;100446.53;;;6.14;92.46
59043;BME280;44826;51.596;5.624;2023-03-26T03:00:05;100432.75;;;6.14;92.30
59043;BME280;44826;51.596;5.624;2023-03-26T03:02:39;100434.47;;;6.15;92.61
59043;BME280;44826;51.596;5.624;2023-03-26T03:05:05;100431.88;;;6.15;92.38
59043;BME280;44826;51.596;5.624;2023-03-26T03:07:32;100425.81;;;6.17;92.59
59043;BME280;44826;51.596;5.624;2023-03-26T03:10:02;100419.81;;;6.17;92.42
59043;BME280;44826;51.596;5.624;2023-03-26T03:12:27;100411.19;;;6.16;92.40
59043;BME280;44826;51.596;5.624;2023-03-26T03:14:53;100416.34;;;6.16;92.67
59043;BME280;44826;51.596;5.624;2023-03-26T03:17:18;100414.59;;;6.18;92.58
59043;BME280;44826;51.596;5.624;2023-03-26T03:19:45;100407.72;;;6.19;92.84
59043;BME280;44826;51.596;5.624;2023-03-26T03:22:10;100397.34;;;6.20;92.83
59043;BME280;44826;51.596;5.624;2023-03-26T03:24:36;100395.66;;;6.19;92.64
59043;BME280;44826;51.596;5.624;2023-03-26T03:27:03;100396.53;;;6.20;92.90
59043;BME280;44826;51.596;5.624;2023-03-26T03:29:28;100387.91;;;6.21;92.98
59043;BME280;44826;51.596;5.624;2023-03-26T03:31:53;100390.44;;;6.22;92.56
59043;BME280;44826;51.596;5.624;2023-03-26T03:34:19;100377.50;;;6.24;92.88
59043;BME280;44826;51.596;5.624;2023-03-26T03:36:45;100383.53;;;6.25;93.10
59043;BME280;44826;51.596;5.624;2023-03-26T03:39:13;100377.50;;;6.26;92.65
59043;BME280;44826;51.596;5.624;2023-03-26T03:41:38;100373.16;;;6.28;92.50
59043;BME280;44826;51.596;5.624;2023-03-26T03:44:04;100380.03;;;6.29;92.67
59043;BME280;44826;51.596;5.624;2023-03-26T03:46:30;100376.63;;;6.27;93.20
59043;BME280;44826;51.596;5.624;2023-03-26T03:48:55;100366.25;;;6.28;93.12
59043;BME280;44826;51.596;5.624;2023-03-26T03:51:21;100366.25;;;6.30;92.83
59043;BME280;44826;51.596;5.624;2023-03-26T03:53:46;100365.38;;;6.31;92.66
59043;BME280;44826;51.596;5.624;2023-03-26T03:56:13;100367.03;;;6.33;92.52
59043;BME280;44826;51.596;5.624;2023-03-26T03:58:41;100364.41;;;6.35;92.63
59043;BME280;44826;51.596;5.624;2023-03-26T04:01:10;100352.38;;;6.35;92.59
59043;BME280;44826;51.596;5.624;2023-03-26T04:03:37;100354.06;;;6.36;92.58
59043;BME280;44826;51.596;5.624;2023-03-26T04:06:06;100348.88;;;6.38;92.71
59043;BME280;44826;51.596;5.624;2023-03-26T04:08:32;100342.81;;;6.39;92.96
59043;BME280;44826;51.596;5.624;2023-03-26T04:10:58;100338.50;;;6.41;92.80
59043;BME280;44826;51.596;5.624;2023-03-26T04:13:23;100347.06;;;6.43;92.90
59043;BME280;44826;51.596;5.624;2023-03-26T04:15:48;100336.72;;;6.43;93.01
59043;BME280;44826;51.596;5.624;2023-03-26T04:18:14;100334.09;;;6.45;93.27
59043;BME280;44826;51.596;5.624;2023-03-26T04:20:41;100334.09;;;6.46;93.20
59043;BME280;44826;51.596;5.624;2023-03-26T04:23:12;100330.66;;;6.47;93.42
59043;BME280;44826;51.596;5.624;2023-03-26T04:25:39;100326.28;;;6.49;93.32
59043;BME280;44826;51.596;5.624;2023-03-26T04:28:06;100321.09;;;6.49;93.73
59043;BME280;44826;51.596;5.624;2023-03-26T04:30:33;100316.75;;;6.51;93.53
59043;BME280;44826;51.596;5.624;2023-03-26T04:33:03;100313.34;;;6.51;93.79
59043;BME280;44826;51.596;5.624;2023-03-26T04:35:31;100307.31;;;6.52;93.90
59043;BME280;44826;51.596;5.624;2023-03-26T04:38:01;100300.38;;;6.52;94.34
59043;BME280;44826;51.596;5.624;2023-03-26T04:40:31;100300.38;;;6.52;94.52
59043;BME280;44826;51.596;5.624;2023-03-26T04:43:01;100289.16;;;6.53;94.67
59043;BME280;44826;51.596;5.624;2023-03-26T04:45:28;100288.28;;;6.55;94.66
59043;BME280;44826;51.596;5.624;2023-03-26T04:47:55;100282.28;;;6.54;95.10
59043;BME280;44826;51.596;5.624;2023-03-26T04:50:20;100275.38;;;6.55;94.99
59043;BME280;44826;51.596;5.624;2023-03-26T04:52:46;100272.78;;;6.55;95.59
59043;BME280;44826;51.596;5.624;2023-03-26T04:55:20;100267.63;;;6.55;95.07
59043;BME280;44826;51.596;5.624;2023-03-26T04:57:52;100265.03;;;6.55;95.24
59043;BME280;44826;51.596;5.624;2023-03-26T05:00:19;100259.03;;;6.52;94.91
59043;BME280;44826;51.596;5.624;2023-03-26T05:02:45;100247.88;;;6.52;95.38
59043;BME280;44826;51.596;5.624;2023-03-26T05:05:14;100247.88;;;6.52;95.09
59043;BME280;44826;51.596;5.624;2023-03-26T05:07:39;100248.69;;;6.52;95.36
59043;BME280;44826;51.596;5.624;2023-03-26T05:10:07;100240.94;;;6.52;95.39
59043;BME280;44826;51.596;5.624;2023-03-26T05:12:32;100243.53;;;6.52;95.27
59043;BME280;44826;51.596;5.624;2023-03-26T05:14:58;100241.00;;;6.51;95.39
59043;BME280;44826;51.596;5.624;2023-03-26T05:17:24;100231.56;;;6.48;95.23
59043;BME280;44826;51.596;5.624;2023-03-26T05:19:50;100225.50;;;6.49;95.45
59043;BME280;44826;51.596;5.624;2023-03-26T05:22:16;100231.56;;;6.47;95.49
59043;BME280;44826;51.596;5.624;2023-03-26T05:24:42;100229.03;;;6.45;95.36
59043;BME280;44826;51.596;5.624;2023-03-26T05:27:07;100231.63;;;6.45;95.48
59043;BME280;44826;51.596;5.624;2023-03-26T05:29:33;100224.75;;;6.44;95.29
59043;BME280;44826;51.596;5.624;2023-03-26T05:31:58;100214.41;;;6.44;95.29
59043;BME280;44826;51.596;5.624;2023-03-26T05:34:23;100222.19;;;6.43;95.57
59043;BME280;44826;51.596;5.624;2023-03-26T05:36:51;100215.31;;;6.42;95.31
59043;BME280;44826;51.596;5.624;2023-03-26T05:39:16;100211.00;;;6.42;95.51
59043;BME280;44826;51.596;5.624;2023-03-26T05:41:42;100201.53;;;6.41;95.90
59043;BME280;44826;51.596;5.624;2023-03-26T05:44:08;100200.66;;;6.42;95.92
59043;BME280;44826;51.596;5.624;2023-03-26T05:46:33;100189.44;;;6.43;95.85
59043;BME280;44826;51.596;5.624;2023-03-26T05:48:58;100192.03;;;6.43;96.24
59043;BME280;44826;51.596;5.624;2023-03-26T05:51:24;100189.44;;;6.43;96.25
59043;BME280;44826;51.596;5.624;2023-03-26T05:53:50;100186.88;;;6.43;96.35
59043;BME280;44826;51.596;5.624;2023-03-26T05:56:15;100175.66;;;6.43;96.15
59043;BME280;44826;51.596;5.624;2023-03-26T05:58:41;100179.13;;;6.43;96.54
59043;BME280;44826;51.596;5.624;2023-03-26T06:01:08;100180.00;;;6.42;96.33
59043;BME280;44826;51.596;5.624;2023-03-26T06:03:36;100171.38;;;6.43;96.16
59043;BME280;44826;51.596;5.624;2023-03-26T06:06:06;100171.38;;;6.43;96.11
59043;BME280;44826;51.596;5.624;2023-03-26T06:08:31;100162.75;;;6.44;95.92
59043;BME280;44826;51.596;5.624;2023-03-26T06:11:02;100158.41;;;6.45;96.60
59043;BME280;44826;51.596;5.624;2023-03-26T06:13:29;100166.16;;;6.46;96.65
59043;BME280;44826;51.596;5.624;2023-03-26T06:15:54;100166.09;;;6.48;96.71
59043;BME280;44826;51.596;5.624;2023-03-26T06:18:21;100158.34;;;6.48;96.33
59043;BME280;44826;51.596;5.624;2023-03-26T06:20:47;100163.47;;;6.49;96.17
59043;BME280;44826;51.596;5.624;2023-03-26T06:23:12;100155.66;;;6.52;96.66
59043;BME280;44826;51.596;5.624;2023-03-26T06:25:37;100153.06;;;6.54;96.98
59043;BME280;44826;51.596;5.624;2023-03-26T06:28:03;100156.47;;;6.56;96.55
59043;BME280;44826;51.596;5.624;2023-03-26T06:30:28;100151.31;;;6.56;96.68
59043;BME280;44826;51.596;5.624;2023-03-26T06:32:53;100154.72;;;6.57;97.06
59043;BME280;44826;51.596;5.624;2023-03-26T06:35:19;100151.22;;;6.59;96.84
59043;BME280;44826;51.596;5.624;2023-03-26T06:37:45;100151.22;;;6.59;97.12
59043;BME280;44826;51.596;5.624;2023-03-26T06:40:10;100156.31;;;6.64;97.11
59043;BME280;44826;51.596;5.624;2023-03-26T06:42:36;100151.09;;;6.65;97.57
59043;BME280;44826;51.596;5.624;2023-03-26T06:45:01;100152.75;;;6.68;97.26
59043;BME280;44826;51.596;5.624;2023-03-26T06:47:26;100150.13;;;6.71;97.25
59043;BME280;44826;51.596;5.624;2023-03-26T06:49:52;100148.34;;;6.73;97.29
59043;BME280;44826;51.596;5.624;2023-03-26T06:52:17;100151.75;;;6.75;97.53
59043;BME280;44826;51.596;5.624;2023-03-26T06:54:42;100149.13;;;6.77;97.46
59043;BME280;44826;51.596;5.624;2023-03-26T06:57:08;100150.88;;;6.76;97.36
59043;BME280;44826;51.596;5.624;2023-03-26T06:59:33;100146.59;;;6.75;97.66
59043;BME280;44826;51.596;5.624;2023-03-26T07:01:58;100155.19;;;6.76;97.42
59043;BME280;44826;51.596;5.624;2023-03-26T07:04:23;100150.00;;;6.77;97.08
59043;BME280;44826;51.596;5.624;2023-03-26T07:06:49;100154.31;;;6.77;97.32
59043;BME280;44826;51.596;5.624;2023-03-26T07:09:14;100153.41;;;6.79;97.54
59043;BME280;44826;51.596;5.624;2023-03-26T07:11:39;100149.94;;;6.80;97.73
59043;BME280;44826;51.596;5.624;2023-03-26T07:14:05;100149.94;;;6.80;97.37
59043;BME280;44826;51.596;5.624;2023-03-26T07:16:30;100144.78;;;6.80;97.29
59043;BME280;44826;51.596;5.624;2023-03-26T07:18:55;100137.91;;;6.79;97.39
59043;BME280;44826;51.596;5.624;2023-03-26T07:21:21;100136.13;;;6.81;97.68
59043;BME280;44826;51.596;5.624;2023-03-26T07:23:47;100139.56;;;6.82;97.88
59043;BME280;44826;51.596;5.624;2023-03-26T07:31:59;100130.03;;;6.84;97.54
59043;BME280;44826;51.596;5.624;2023-03-26T07:34:53;100126.56;;;6.85;97.93
59043;BME280;44826;51.596;5.624;2023-03-26T07:37:31;100123.94;;;6.87;97.79
59043;BME280;44826;51.596;5.624;2023-03-26T07:40:04;100119.59;;;6.89;97.67
59043;BME280;44826;51.596;5.624;2023-03-26T07:42:45;100117.81;;;6.91;98.07
59043;BME280;44826;51.596;5.624;2023-03-26T07:45:39;100119.47;;;6.95;98.10
59043;BME280;44826;51.596;5.624;2023-03-26T07:50:40;100113.34;;;6.99;98.42
59043;BME280;44826;51.596;5.624;2023-03-26T07:53:05;100115.00;;;7.02;97.96
59043;BME280;44826;51.596;5.624;2023-03-26T07:55:31;100113.25;;;7.02;98.07
59043;BME280;44826;51.596;5.624;2023-03-26T07:58:25;100106.31;;;7.04;98.21
59043;BME280;44826;51.596;5.624;2023-03-26T08:01:00;100110.59;;;7.05;98.21
59043;BME280;44826;51.596;5.624;2023-03-26T08:03:42;100105.34;;;7.08;98.35
59043;BME280;44826;51.596;5.624;2023-03-26T08:06:34;100111.34;;;7.10;98.41
59043;BME280;44826;51.596;5.624;2023-03-26T08:14:16;100113.00;;;7.14;98.15
59043;BME280;44826;51.596;5.624;2023-03-26T08:17:12;100107.72;;;7.18;98.43
59043;BME280;44826;51.596;5.624;2023-03-26T08:22:30;100111.13;;;7.20;98.20
59043;BME280;44826;51.596;5.624;2023-03-26T08:25:24;100109.34;;;7.22;98.64
59043;BME280;44826;51.596;5.624;2023-03-26T08:28:04;100114.47;;;7.25;98.65
59043;BME280;44826;51.596;5.624;2023-03-26T08:30:32;100110.06;;;7.28;98.19
59043;BME280;44826;51.596;5.624;2023-03-26T08:33:18;100109.97;;;7.32;98.59
59043;BME280;44826;51.596;5.624;2023-03-26T08:35:45;100103.97;;;7.31;98.24
59043;BME280;44826;51.596;5.624;2023-03-26T08:38:12;100110.81;;;7.34;99.02
59043;BME280;44826;51.596;5.624;2023-03-26T08:46:56;100100.19;;;7.44;98.96
59043;BME280;44826;51.596;5.624;2023-03-26T08:52:33;100101.72;;;7.52;98.93
59043;BME280;44826;51.596;5.624;2023-03-26T09:14:38;100083.78;;;7.79;98.62
59043;BME280;44826;51.596;5.624;2023-03-26T09:17:13;100080.13;;;7.86;98.47
59043;BME280;44826;51.596;5.624;2023-03-26T09:37:12;100078.38;;;8.19;97.44
59043;BME280;44826;51.596;5.624;2023-03-26T09:42:51;100072.25;;;8.22;97.21
59043;BME280;44826;51.596;5.624;2023-03-26T09:51:18;100069.97;;;8.11;96.88
59043;BME280;44826;51.596;5.624;2023-03-26T09:54:37;100072.59;;;8.10;97.04
59043;BME280;44826;51.596;5.624;2023-03-26T09:57:27;100073.47;;;8.10;97.03
59043;BME280;44826;51.596;5.624;2023-03-26T10:00:31;100068.16;;;8.15;97.29
59043;BME280;44826;51.596;5.624;2023-03-26T10:03:37;100069.56;;;8.25;96.94
59043;BME280;44826;51.596;5.624;2023-03-26T10:09:02;100075.25;;;8.38;96.75
59043;BME280;44826;51.596;5.624;2023-03-26T10:17:21;100072.31;;;8.52;95.49
59043;BME280;44826;51.596;5.624;2023-03-26T10:20:24;100072.25;;;8.54;95.40
59043;BME280;44826;51.596;5.624;2023-03-26T10:28:28;100075.81;;;8.49;94.25
59043;BME280;44826;51.596;5.624;2023-03-26T10:31:33;100083.66;;;8.48;94.24
59043;BME280;44826;51.596;5.624;2023-03-26T10:36:55;100082.00;;;8.44;94.32
59043;BME280;44826;51.596;5.624;2023-03-26T10:39:59;100085.47;;;8.43;94.12
59043;BME280;44826;51.596;5.624;2023-03-26T10:42:51;100078.69;;;8.39;93.68
59043;BME280;44826;51.596;5.624;2023-03-26T10:48:41;100083.19;;;8.32;93.47
59043;BME280;44826;51.596;5.624;2023-03-26T10:56:22;100088.81;;;8.16;92.84
59043;BME280;44826;51.596;5.624;2023-03-26T10:58:50;100088.91;;;8.13;92.80
59043;BME280;44826;51.596;5.624;2023-03-26T11:01:21;100089.69;;;8.17;93.51
59043;BME280;44826;51.596;5.624;2023-03-26T11:03:53;100091.25;;;8.23;93.90
59043;BME280;44826;51.596;5.624;2023-03-26T11:06:46;100091.03;;;8.30;94.37
59043;BME280;44826;51.596;5.624;2023-03-26T11:09:30;100100.19;;;8.42;94.35
59043;BME280;44826;51.596;5.624;2023-03-26T11:12:09;100094.03;;;8.48;93.79
59043;BME280;44826;51.596;5.624;2023-03-26T11:20:37;100100.53;;;8.61;92.29
59043;BME280;44826;51.596;5.624;2023-03-26T11:26:04;100104.59;;;8.70;92.31
59043;BME280;44826;51.596;5.624;2023-03-26T11:34:02;100108.50;;;8.84;92.20
59043;BME280;44826;51.596;5.624;2023-03-26T11:36:35;100103.28;;;8.85;92.19
59043;BME280;44826;51.596;5.624;2023-03-26T11:39:05;100110.19;;;8.86;92.08
59043;BME280;44826;51.596;5.624;2023-03-26T11:41:34;100112.78;;;8.86;91.28
59043;BME280;44826;51.596;5.624;2023-03-26T11:46:37;100111.06;;;8.85;91.06
59043;BME280;44826;51.596;5.624;2023-03-26T11:49:08;100111.91;;;8.86;90.94
59043;BME280;44826;51.596;5.624;2023-03-26T11:51:36;100123.00;;;8.91;90.84
59043;BME280;44826;51.596;5.624;2023-03-26T11:54:04;100115.06;;;8.95;90.49
59043;BME280;44826;51.596;5.624;2023-03-26T12:04:44;100119.75;;;9.13;90.46
59043;BME280;44826;51.596;5.624;2023-03-26T12:07:30;100124.97;;;9.11;90.72
59043;BME280;44826;51.596;5.624;2023-03-26T12:10:04;100120.78;;;9.07;90.12
59043;BME280;44826;51.596;5.624;2023-03-26T12:12:40;100124.25;;;9.06;90.38
59043;BME280;44826;51.596;5.624;2023-03-26T12:15:17;100119.94;;;9.06;90.43
59043;BME280;44826;51.596;5.624;2023-03-26T12:17:45;100126.84;;;9.06;91.45
59043;BME280;44826;51.596;5.624;2023-03-26T12:20:32;100124.09;;;9.12;91.09
59043;BME280;44826;51.596;5.624;2023-03-26T12:23:02;100131.88;;;9.12;90.48
59043;BME280;44826;51.596;5.624;2023-03-26T12:25:30;100129.13;;;9.17;90.87
59043;BME280;44826;51.596;5.624;2023-03-26T12:30:30;100128.63;;;9.32;90.92
59043;BME280;44826;51.596;5.624;2023-03-26T12:33:04;100137.22;;;9.34;89.61
59043;BME280;44826;51.596;5.624;2023-03-26T12:35:32;100138.09;;;9.35;90.18
59043;BME280;44826;51.596;5.624;2023-03-26T12:38:22;100133.00;;;9.32;89.45
59043;BME280;44826;51.596;5.624;2023-03-26T12:41:02;100142.63;;;9.28;90.17
59043;BME280;44826;51.596;5.624;2023-03-26T12:43:35;100141.75;;;9.27;90.45
59043;BME280;44826;51.596;5.624;2023-03-26T12:46:00;100140.78;;;9.32;89.92
59043;BME280;44826;51.596;5.624;2023-03-26T12:48:26;100141.56;;;9.34;88.85
59043;BME280;44826;51.596;5.624;2023-03-26T12:51:07;100141.50;;;9.37;88.58
59043;BME280;44826;51.596;5.624;2023-03-26T12:56:29;100147.97;;;9.50;88.80
59043;BME280;44826;51.596;5.624;2023-03-26T13:01:59;100150.25;;;9.60;87.78
59043;BME280;44826;51.596;5.624;2023-03-26T13:04:50;100149.81;;;9.74;88.47
59043;BME280;44826;51.596;5.624;2023-03-26T13:10:26;100153.94;;;9.79;87.64
59043;BME280;44826;51.596;5.624;2023-03-26T13:13:24;100156.50;;;9.81;86.71
59043;BME280;44826;51.596;5.624;2023-03-26T13:19:05;100162.94;;;9.69;86.92
59043;BME280;44826;51.596;5.624;2023-03-26T13:21:55;100164.75;;;9.67;87.45
59043;BME280;44826;51.596;5.624;2023-03-26T13:24:37;100165.25;;;9.51;86.17
59043;BME280;44826;51.596;5.624;2023-03-26T13:30:47;100183.69;;;9.15;87.23
59043;BME280;44826;51.596;5.624;2023-03-26T13:36:14;100179.56;;;8.78;87.77
59043;BME280;44826;51.596;5.624;2023-03-26T13:41:50;100191.44;;;8.55;88.79
59043;BME280;44826;51.596;5.624;2023-03-26T13:46:59;100185.66;;;8.45;90.42
59043;BME280;44826;51.596;5.624;2023-03-26T13:49:33;100190.78;;;8.48;90.64
59043;BME280;44826;51.596;5.624;2023-03-26T13:52:10;100191.50;;;8.54;90.65
59043;BME280;44826;51.596;5.624;2023-03-26T13:57:40;100192.97;;;8.62;91.01
59043;BME280;44826;51.596;5.624;2023-03-26T14:00:14;100201.72;;;8.58;90.89
59043;BME280;44826;51.596;5.624;2023-03-26T14:07:46;100205.19;;;8.26;91.57
59043;BME280;44826;51.596;5.624;2023-03-26T14:10:18;100219.22;;;8.17;91.14
59043;BME280;44826;51.596;5.624;2023-03-26T14:13:08;100214.13;;;8.14;90.84
59043;BME280;44826;51.596;5.624;2023-03-26T14:15:50;100228.28;;;8.00;91.39
59043;BME280;44826;51.596;5.624;2023-03-26T14:21:04;100233.66;;;7.93;91.07
59043;BME280;44826;51.596;5.624;2023-03-26T14:27:00;100233.03;;;7.81;90.94
59043;BME280;44826;51.596;5.624;2023-03-26T14:30:12;100243.59;;;7.73;90.57
59043;BME280;44826;51.596;5.624;2023-03-26T14:35:31;100260.25;;;7.63;91.24
59043;BME280;44826;51.596;5.624;2023-03-26T14:43:39;100270.47;;;7.68;90.23
59043;BME280;44826;51.596;5.624;2023-03-26T14:54:25;100289.06;;;7.48;90.25
59043;BME280;44826;51.596;5.624;2023-03-26T15:05:44;100300.97;;;7.55;89.72
59043;BME280;44826;51.596;5.624;2023-03-26T15:11:31;100308.00;;;7.50;89.61
59043;BME280;44826;51.596;5.624;2023-03-26T15:17:04;100315.88;;;7.43;89.90
59043;BME280;44826;51.596;5.624;2023-03-26T15:19:51;100316.75;;;7.42;89.08
59043;BME280;44826;51.596;5.624;2023-03-26T15:25:29;100331.31;;;7.48;89.27
59043;BME280;44826;51.596;5.624;2023-03-26T15:31:41;100340.00;;;7.44;89.40
59043;BME280;44826;51.596;5.624;2023-03-26T15:37:27;100348.69;;;7.41;89.12
59043;BME280;44826;51.596;5.624;2023-03-26T15:43:07;100359.00;;;7.44;88.00
59043;BME280;44826;51.596;5.624;2023-03-26T15:50:51;100372.81;;;7.43;85.53
59043;BME280;44826;51.596;5.624;2023-03-26T16:01:53;100406.56;;;7.37;84.52
59043;BME280;44826;51.596;5.624;2023-03-26T16:16:46;100423.28;;;7.21;84.61
59043;BME280;44826;51.596;5.624;2023-03-26T16:18:55;100427.56;;;7.22;84.69
59043;BME280;44826;51.596;5.624;2023-03-26T16:24:10;100431.91;;;7.20;85.24
59043;BME280;44826;51.596;5.624;2023-03-26T16:29:23;100447.53;;;7.17;84.85
59043;BME280;44826;51.596;5.624;2023-03-26T16:34:48;100458.69;;;7.17;84.96
59043;BME280;44826;51.596;5.624;2023-03-26T16:43:02;100477.78;;;7.11;84.93
59043;BME280;44826;51.596;5.624;2023-03-26T16:45:42;100494.22;;;7.07;84.51
59043;BME280;44826;51.596;5.624;2023-03-26T16:50:55;100504.66;;;7.01;84.32
59043;BME280;44826;51.596;5.624;2023-03-26T16:56:28;100513.41;;;6.94;83.22
59043;BME280;44826;51.596;5.624;2023-03-26T16:59:25;100518.56;;;6.95;82.72
59043;BME280;44826;51.596;5.624;2023-03-26T17:02:03;100526.47;;;6.86;82.37
59043;BME280;44826;51.596;5.624;2023-03-26T17:04:33;100536.91;;;6.80;82.24
59043;BME280;44826;51.596;5.624;2023-03-26T17:07:11;100540.34;;;6.79;81.66
59043;BME280;44826;51.596;5.624;2023-03-26T17:10:06;100553.34;;;6.74;83.07
59043;BME280;44826;51.596;5.624;2023-03-26T17:12:40;100563.78;;;6.70;82.42
59043;BME280;44826;51.596;5.624;2023-03-26T17:18:20;100577.69;;;6.61;80.15
59043;BME280;44826;51.596;5.624;2023-03-26T17:20:55;100583.78;;;6.55;79.82
59043;BME280;44826;51.596;5.624;2023-03-26T17:26:21;100598.47;;;6.51;80.09
59043;BME280;44826;51.596;5.624;2023-03-26T17:29:04;100606.25;;;6.50;79.50
59043;BME280;44826;51.596;5.624;2023-03-26T17:31:41;100613.19;;;6.46;78.55
59043;BME280;44826;51.596;5.624;2023-03-26T17:37:04;100630.44;;;6.43;78.19
59043;BME280;44826;51.596;5.624;2023-03-26T17:42:32;100640.84;;;6.40;79.46
59043;BME280;44826;51.596;5.624;2023-03-26T17:47:44;100650.41;;;6.28;78.32
59043;BME280;44826;51.596;5.624;2023-03-26T17:50:15;100651.38;;;6.21;77.66
59043;BME280;44826;51.596;5.624;2023-03-26T17:52:52;100654.00;;;6.15;76.05
59043;BME280;44826;51.596;5.624;2023-03-26T17:55:22;100663.50;;;6.13;76.22
59043;BME280;44826;51.596;5.624;2023-03-26T17:57:52;100676.47;;;6.08;76.64
59043;BME280;44826;51.596;5.624;2023-03-26T18:00:22;100684.22;;;6.06;76.08
59043;BME280;44826;51.596;5.624;2023-03-26T18:02:59;100691.97;;;6.05;75.33
59043;BME280;44826;51.596;5.624;2023-03-26T18:05:28;100691.16;;;6.00;76.04
59043;BME280;44826;51.596;5.624;2023-03-26T18:14:01;100719.59;;;5.97;76.48